sensor_id;sensor_type;location;lat;lon;timestamp;temperature;humidity
19168;DHT22;9716;53.114;18.040;2023-11-25T00:01:08;2.60;99.90
19168;DHT22;9716;53.114;18.040;2023-11-25T00:03:42;2.60;99.90
19168;DHT22;9716;53.114;18.040;2023-11-25T00:06:11;2.60;99.90
19168;DHT22;9716;53.114;18.040;2023-11-25T00:08:39;2.60;99.90
19168;DHT22;9716;53.114;18.040;2023-11-25T00:11:08;2.60;99.90
19168;DHT22;9716;53.114;18.040;2023-11-25T00:13:51;2.60;99.90
19168;DHT22;9716;53.114;18.040;2023-11-25T00:16:19;2.60;99.90
19168;DHT22;9716;53.114;18.040;2023-11-25T00:18:49;2.60;99.90
19168;DHT22;9716;53.114;18.040;2023-11-25T00:21:18;2.60;99.90
19168;DHT22;9716;53.114;18.040;2023-11-25T00:23:46;2.60;99.90
19168;DHT22;9716;53.114;18.040;2023-11-25T00:26:14;2.60;99.90
19168;DHT22;9716;53.114;18.040;2023-11-25T00:28:43;2.60;99.90
19168;DHT22;9716;53.114;18.040;2023-11-25T00:31:11;2.60;99.90
19168;DHT22;9716;53.114;18.040;2023-11-25T00:33:42;2.50;99.90
19168;DHT22;9716;53.114;18.040;2023-11-25T00:36:11;2.50;99.90
19168;DHT22;9716;53.114;18.040;2023-11-25T00:38:40;2.50;99.90
19168;DHT22;9716;53.114;18.040;2023-11-25T00:41:08;2.50;99.90
19168;DHT22;9716;53.114;18.040;2023-11-25T00:43:37;2.50;99.90
19168;DHT22;9716;53.114;18.040;2023-11-25T00:46:05;2.50;99.90
19168;DHT22;9716;53.114;18.040;2023-11-25T00:48:35;2.50;99.90
19168;DHT22;9716;53.114;18.040;2023-11-25T00:51:03;2.50;99.90
19168;DHT22;9716;53.114;18.040;2023-11-25T00:53:33;2.50;99.90
19168;DHT22;9716;53.114;18.040;2023-11-25T00:56:02;2.50;99.90
19168;DHT22;9716;53.114;18.040;2023-11-25T00:58:30;2.50;99.90
19168;DHT22;9716;53.114;18.040;2023-11-25T01:00:59;2.60;99.90
19168;DHT22;9716;53.114;18.040;2023-11-25T01:03:28;2.50;99.90
19168;DHT22;9716;53.114;18.040;2023-11-25T01:05:56;2.50;99.90
19168;DHT22;9716;53.114;18.040;2023-11-25T01:08:27;2.50;99.90
19168;DHT22;9716;53.114;18.040;2023-11-25T01:10:57;2.50;99.90
19168;DHT22;9716;53.114;18.040;2023-11-25T01:13:26;2.50;99.90
19168;DHT22;9716;53.114;18.040;2023-11-25T01:15:55;2.50;99.90
19168;DHT22;9716;53.114;18.040;2023-11-25T01:18:24;2.40;99.90
19168;DHT22;9716;53.114;18.040;2023-11-25T01:20:53;2.50;99.90
19168;DHT22;9716;53.114;18.040;2023-11-25T01:23:23;2.40;99.90
19168;DHT22;9716;53.114;18.040;2023-11-25T01:25:52;2.40;99.90
19168;DHT22;9716;53.114;18.040;2023-11-25T01:28:22;2.40;99.90
19168;DHT22;9716;53.114;18.040;2023-11-25T01:30:50;2.50;99.90
19168;DHT22;9716;53.114;18.040;2023-11-25T01:33:19;2.40;99.90
19168;DHT22;9716;53.114;18.040;2023-11-25T01:35:47;2.40;99.90
19168;DHT22;9716;53.114;18.040;2023-11-25T01:38:16;2.50;99.90
19168;DHT22;9716;53.114;18.040;2023-11-25T01:40:45;2.40;99.90
19168;DHT22;9716;53.114;18.040;2023-11-25T01:43:13;2.40;99.90
19168;DHT22;9716;53.114;18.040;2023-11-25T01:45:43;2.40;99.90
19168;DHT22;9716;53.114;18.040;2023-11-25T01:48:14;2.40;99.90
19168;DHT22;9716;53.114;18.040;2023-11-25T01:50:43;2.40;99.90
19168;DHT22;9716;53.114;18.040;2023-11-25T01:53:14;2.30;99.90
19168;DHT22;9716;53.114;18.040;2023-11-25T01:55:44;2.30;99.90
19168;DHT22;9716;53.114;18.040;2023-11-25T01:58:14;2.30;99.90
19168;DHT22;9716;53.114;18.040;2023-11-25T02:00:44;2.30;99.90
19168;DHT22;9716;53.114;18.040;2023-11-25T02:03:13;2.30;99.90
19168;DHT22;9716;53.114;18.040;2023-11-25T02:05:42;2.20;99.90
19168;DHT22;9716;53.114;18.040;2023-11-25T02:08:12;2.20;99.90
19168;DHT22;9716;53.114;18.040;2023-11-25T02:10:40;2.20;99.90
19168;DHT22;9716;53.114;18.040;2023-11-25T02:13:09;2.10;99.90
19168;DHT22;9716;53.114;18.040;2023-11-25T02:15:39;2.10;99.90
19168;DHT22;9716;53.114;18.040;2023-11-25T02:18:09;2.00;99.90
19168;DHT22;9716;53.114;18.040;2023-11-25T02:20:39;2.00;99.90
19168;DHT22;9716;53.114;18.040;2023-11-25T02:23:17;1.90;99.90
19168;DHT22;9716;53.114;18.040;2023-11-25T02:25:46;1.80;99.90
19168;DHT22;9716;53.114;18.040;2023-11-25T02:28:15;1.80;99.90
19168;DHT22;9716;53.114;18.040;2023-11-25T02:30:44;1.70;99.90
19168;DHT22;9716;53.114;18.040;2023-11-25T02:33:14;1.70;99.90
19168;DHT22;9716;53.114;18.040;2023-11-25T02:35:43;1.60;99.90
19168;DHT22;9716;53.114;18.040;2023-11-25T02:38:15;1.60;99.90
19168;DHT22;9716;53.114;18.040;2023-11-25T02:40:44;1.50;99.90
19168;DHT22;9716;53.114;18.040;2023-11-25T02:43:16;1.40;99.90
19168;DHT22;9716;53.114;18.040;2023-11-25T02:45:47;1.40;99.90
19168;DHT22;9716;53.114;18.040;2023-11-25T02:48:16;1.30;99.90
19168;DHT22;9716;53.114;18.040;2023-11-25T02:50:44;1.30;99.90
19168;DHT22;9716;53.114;18.040;2023-11-25T02:53:13;1.20;99.90
19168;DHT22;9716;53.114;18.040;2023-11-25T02:55:43;1.20;99.90
19168;DHT22;9716;53.114;18.040;2023-11-25T02:58:12;1.10;99.90
19168;DHT22;9716;53.114;18.040;2023-11-25T03:00:40;1.10;99.90
19168;DHT22;9716;53.114;18.040;2023-11-25T03:03:11;1.00;99.90
19168;DHT22;9716;53.114;18.040;2023-11-25T03:05:44;1.00;99.90
19168;DHT22;9716;53.114;18.040;2023-11-25T03:08:17;1.00;99.90
19168;DHT22;9716;53.114;18.040;2023-11-25T03:10:46;0.90;99.90
19168;DHT22;9716;53.114;18.040;2023-11-25T03:13:15;0.90;99.90
19168;DHT22;9716;53.114;18.040;2023-11-25T03:15:44;0.80;99.90
19168;DHT22;9716;53.114;18.040;2023-11-25T03:18:13;0.80;99.90
19168;DHT22;9716;53.114;18.040;2023-11-25T03:20:41;0.80;99.90
19168;DHT22;9716;53.114;18.040;2023-11-25T03:23:10;0.80;99.90
19168;DHT22;9716;53.114;18.040;2023-11-25T03:25:38;0.70;99.90
19168;DHT22;9716;53.114;18.040;2023-11-25T03:28:09;0.70;99.90
19168;DHT22;9716;53.114;18.040;2023-11-25T03:30:38;0.70;99.90
19168;DHT22;9716;53.114;18.040;2023-11-25T03:33:08;0.60;99.90
19168;DHT22;9716;53.114;18.040;2023-11-25T03:35:37;0.60;99.90
19168;DHT22;9716;53.114;18.040;2023-11-25T03:38:06;0.60;99.90
19168;DHT22;9716;53.114;18.040;2023-11-25T03:40:35;0.60;99.90
19168;DHT22;9716;53.114;18.040;2023-11-25T03:43:04;0.50;99.90
19168;DHT22;9716;53.114;18.040;2023-11-25T03:45:34;0.50;99.90
19168;DHT22;9716;53.114;18.040;2023-11-25T03:48:03;0.50;99.90
19168;DHT22;9716;53.114;18.040;2023-11-25T03:50:32;0.50;99.90
19168;DHT22;9716;53.114;18.040;2023-11-25T03:53:01;0.50;99.90
19168;DHT22;9716;53.114;18.040;2023-11-25T03:55:29;0.40;99.90
19168;DHT22;9716;53.114;18.040;2023-11-25T03:57:58;0.40;99.90
19168;DHT22;9716;53.114;18.040;2023-11-25T04:00:28;0.40;99.90
19168;DHT22;9716;53.114;18.040;2023-11-25T04:02:58;0.40;99.90
19168;DHT22;9716;53.114;18.040;2023-11-25T04:05:27;0.40;99.90
19168;DHT22;9716;53.114;18.040;2023-11-25T04:07:55;0.40;99.90
19168;DHT22;9716;53.114;18.040;2023-11-25T04:10:24;0.40;99.90
19168;DHT22;9716;53.114;18.040;2023-11-25T04:12:54;0.40;99.90
19168;DHT22;9716;53.114;18.040;2023-11-25T04:15:23;0.40;99.90
19168;DHT22;9716;53.114;18.040;2023-11-25T04:17:52;0.40;99.90
19168;DHT22;9716;53.114;18.040;2023-11-25T04:20:22;0.40;99.90
19168;DHT22;9716;53.114;18.040;2023-11-25T04:22:58;0.40;99.90
19168;DHT22;9716;53.114;18.040;2023-11-25T04:25:33;0.40;99.90
19168;DHT22;9716;53.114;18.040;2023-11-25T04:28:03;0.40;99.90
19168;DHT22;9716;53.114;18.040;2023-11-25T04:30:34;0.40;99.90
19168;DHT22;9716;53.114;18.040;2023-11-25T04:33:02;0.40;99.90
19168;DHT22;9716;53.114;18.040;2023-11-25T04:35:32;0.40;99.90
19168;DHT22;9716;53.114;18.040;2023-11-25T04:38:00;0.40;99.90
19168;DHT22;9716;53.114;18.040;2023-11-25T04:40:29;0.30;99.90
19168;DHT22;9716;53.114;18.040;2023-11-25T04:42:58;0.40;99.90
19168;DHT22;9716;53.114;18.040;2023-11-25T04:45:27;0.30;99.90
19168;DHT22;9716;53.114;18.040;2023-11-25T04:47:55;0.30;99.90
19168;DHT22;9716;53.114;18.040;2023-11-25T04:50:24;0.30;99.90
19168;DHT22;9716;53.114;18.040;2023-11-25T04:52:56;0.30;99.90
19168;DHT22;9716;53.114;18.040;2023-11-25T04:55:26;0.30;99.90
19168;DHT22;9716;53.114;18.040;2023-11-25T04:57:55;0.30;99.90
19168;DHT22;9716;53.114;18.040;2023-11-25T05:00:24;0.30;99.90
19168;DHT22;9716;53.114;18.040;2023-11-25T05:02:53;0.20;99.90
19168;DHT22;9716;53.114;18.040;2023-11-25T05:05:21;0.20;99.90
19168;DHT22;9716;53.114;18.040;2023-11-25T05:07:50;0.20;99.90
19168;DHT22;9716;53.114;18.040;2023-11-25T05:10:20;0.20;99.90
19168;DHT22;9716;53.114;18.040;2023-11-25T05:12:50;0.20;99.90
19168;DHT22;9716;53.114;18.040;2023-11-25T05:15:18;0.20;99.90
19168;DHT22;9716;53.114;18.040;2023-11-25T05:17:50;0.20;99.90
19168;DHT22;9716;53.114;18.040;2023-11-25T05:20:18;0.20;99.90
19168;DHT22;9716;53.114;18.040;2023-11-25T05:22:47;0.10;99.90
19168;DHT22;9716;53.114;18.040;2023-11-25T05:25:15;0.10;99.90
19168;DHT22;9716;53.114;18.040;2023-11-25T05:27:45;0.10;99.90
19168;DHT22;9716;53.114;18.040;2023-11-25T05:30:14;0.10;99.90
19168;DHT22;9716;53.114;18.040;2023-11-25T05:32:43;0.10;99.90
19168;DHT22;9716;53.114;18.040;2023-11-25T05:35:12;0.10;99.90
19168;DHT22;9716;53.114;18.040;2023-11-25T05:37:42;0.10;99.90
19168;DHT22;9716;53.114;18.040;2023-11-25T05:40:12;0.10;99.90
19168;DHT22;9716;53.114;18.040;2023-11-25T05:42:43;0.10;99.90
19168;DHT22;9716;53.114;18.040;2023-11-25T05:45:21;0.10;99.90
19168;DHT22;9716;53.114;18.040;2023-11-25T05:47:53;0.10;99.90
19168;DHT22;9716;53.114;18.040;2023-11-25T05:50:23;0.10;99.90
19168;DHT22;9716;53.114;18.040;2023-11-25T05:52:53;0.10;99.90
19168;DHT22;9716;53.114;18.040;2023-11-25T05:55:22;0.10;99.90
19168;DHT22;9716;53.114;18.040;2023-11-25T05:57:51;0.10;99.90
19168;DHT22;9716;53.114;18.040;2023-11-25T06:00:21;0.10;99.90
19168;DHT22;9716;53.114;18.040;2023-11-25T06:02:51;0.10;99.90
19168;DHT22;9716;53.114;18.040;2023-11-25T06:05:20;0.10;99.90
19168;DHT22;9716;53.114;18.040;2023-11-25T06:07:49;0.10;99.90
19168;DHT22;9716;53.114;18.040;2023-11-25T06:10:18;0.10;99.90
19168;DHT22;9716;53.114;18.040;2023-11-25T06:12:47;0.10;99.90
19168;DHT22;9716;53.114;18.040;2023-11-25T06:15:16;0.10;99.90
19168;DHT22;9716;53.114;18.040;2023-11-25T06:17:47;0.10;99.90
19168;DHT22;9716;53.114;18.040;2023-11-25T06:20:18;0.20;99.90
19168;DHT22;9716;53.114;18.040;2023-11-25T06:22:46;0.30;99.90
19168;DHT22;9716;53.114;18.040;2023-11-25T06:25:15;0.40;99.90
19168;DHT22;9716;53.114;18.040;2023-11-25T06:27:44;0.40;99.90
19168;DHT22;9716;53.114;18.040;2023-11-25T06:30:14;0.50;99.90
19168;DHT22;9716;53.114;18.040;2023-11-25T06:32:43;0.60;99.90
19168;DHT22;9716;53.114;18.040;2023-11-25T06:35:13;0.70;99.90
19168;DHT22;9716;53.114;18.040;2023-11-25T06:37:43;0.70;99.90
19168;DHT22;9716;53.114;18.040;2023-11-25T06:40:11;0.80;99.90
19168;DHT22;9716;53.114;18.040;2023-11-25T06:42:41;0.90;99.90
19168;DHT22;9716;53.114;18.040;2023-11-25T06:45:10;0.90;99.90
19168;DHT22;9716;53.114;18.040;2023-11-25T06:47:41;1.00;99.90
19168;DHT22;9716;53.114;18.040;2023-11-25T06:50:10;1.00;99.90
19168;DHT22;9716;53.114;18.040;2023-11-25T06:52:41;1.10;99.90
19168;DHT22;9716;53.114;18.040;2023-11-25T06:55:09;1.10;99.90
19168;DHT22;9716;53.114;18.040;2023-11-25T06:57:38;1.10;99.90
19168;DHT22;9716;53.114;18.040;2023-11-25T07:00:09;1.10;99.90
19168;DHT22;9716;53.114;18.040;2023-11-25T07:02:39;1.10;99.90
19168;DHT22;9716;53.114;18.040;2023-11-25T07:05:08;1.20;99.90
19168;DHT22;9716;53.114;18.040;2023-11-25T07:07:37;1.20;99.90
19168;DHT22;9716;53.114;18.040;2023-11-25T07:10:07;1.20;99.90
19168;DHT22;9716;53.114;18.040;2023-11-25T07:12:38;1.20;99.90
19168;DHT22;9716;53.114;18.040;2023-11-25T07:15:07;1.20;99.90
19168;DHT22;9716;53.114;18.040;2023-11-25T07:17:36;1.20;99.90
19168;DHT22;9716;53.114;18.040;2023-11-25T07:20:07;1.20;99.90
19168;DHT22;9716;53.114;18.040;2023-11-25T07:22:39;1.20;99.90
19168;DHT22;9716;53.114;18.040;2023-11-25T07:25:10;1.20;99.90
19168;DHT22;9716;53.114;18.040;2023-11-25T07:27:41;1.20;99.90
19168;DHT22;9716;53.114;18.040;2023-11-25T07:30:13;1.20;99.90
19168;DHT22;9716;53.114;18.040;2023-11-25T07:32:43;1.20;99.90
19168;DHT22;9716;53.114;18.040;2023-11-25T07:35:12;1.20;99.90
19168;DHT22;9716;53.114;18.040;2023-11-25T07:37:40;1.20;99.90
19168;DHT22;9716;53.114;18.040;2023-11-25T07:40:11;1.20;99.90
19168;DHT22;9716;53.114;18.040;2023-11-25T07:42:44;1.20;99.90
19168;DHT22;9716;53.114;18.040;2023-11-25T07:45:16;1.30;99.90
19168;DHT22;9716;53.114;18.040;2023-11-25T07:47:45;1.30;99.90
19168;DHT22;9716;53.114;18.040;2023-11-25T07:50:13;1.30;99.90
19168;DHT22;9716;53.114;18.040;2023-11-25T07:52:43;1.40;99.90
19168;DHT22;9716;53.114;18.040;2023-11-25T07:55:13;1.40;99.90
19168;DHT22;9716;53.114;18.040;2023-11-25T07:57:42;1.50;99.90
19168;DHT22;9716;53.114;18.040;2023-11-25T08:00:11;1.60;99.90
19168;DHT22;9716;53.114;18.040;2023-11-25T08:02:44;1.60;99.90
19168;DHT22;9716;53.114;18.040;2023-11-25T08:05:15;1.60;99.90
19168;DHT22;9716;53.114;18.040;2023-11-25T08:07:52;1.60;99.90
19168;DHT22;9716;53.114;18.040;2023-11-25T08:10:23;1.70;99.90
19168;DHT22;9716;53.114;18.040;2023-11-25T08:12:58;1.70;99.90
19168;DHT22;9716;53.114;18.040;2023-11-25T08:15:27;1.80;99.90
19168;DHT22;9716;53.114;18.040;2023-11-25T08:17:55;1.80;99.90
19168;DHT22;9716;53.114;18.040;2023-11-25T08:20:26;1.90;99.90
19168;DHT22;9716;53.114;18.040;2023-11-25T08:22:54;2.00;99.90
19168;DHT22;9716;53.114;18.040;2023-11-25T08:25:24;2.10;99.90
19168;DHT22;9716;53.114;18.040;2023-11-25T08:27:53;2.20;99.90
19168;DHT22;9716;53.114;18.040;2023-11-25T08:30:24;2.30;99.90
19168;DHT22;9716;53.114;18.040;2023-11-25T08:32:53;2.40;99.90
19168;DHT22;9716;53.114;18.040;2023-11-25T08:35:21;2.50;99.90
19168;DHT22;9716;53.114;18.040;2023-11-25T08:37:50;2.60;99.90
19168;DHT22;9716;53.114;18.040;2023-11-25T08:40:18;2.70;99.90
19168;DHT22;9716;53.114;18.040;2023-11-25T08:42:51;2.80;99.90
19168;DHT22;9716;53.114;18.040;2023-11-25T08:45:19;2.90;99.90
19168;DHT22;9716;53.114;18.040;2023-11-25T08:47:48;2.90;99.90
19168;DHT22;9716;53.114;18.040;2023-11-25T08:50:16;2.90;99.90
19168;DHT22;9716;53.114;18.040;2023-11-25T08:52:46;3.00;99.90
19168;DHT22;9716;53.114;18.040;2023-11-25T08:55:16;3.10;99.90
19168;DHT22;9716;53.114;18.040;2023-11-25T08:57:48;3.10;99.90
19168;DHT22;9716;53.114;18.040;2023-11-25T09:00:18;3.10;99.90
19168;DHT22;9716;53.114;18.040;2023-11-25T09:02:50;3.20;99.90
19168;DHT22;9716;53.114;18.040;2023-11-25T09:05:20;3.20;99.90
19168;DHT22;9716;53.114;18.040;2023-11-25T09:07:51;3.20;99.90
19168;DHT22;9716;53.114;18.040;2023-11-25T09:10:20;3.20;99.90
19168;DHT22;9716;53.114;18.040;2023-11-25T09:12:50;3.20;99.90
19168;DHT22;9716;53.114;18.040;2023-11-25T09:15:21;3.20;99.90
19168;DHT22;9716;53.114;18.040;2023-11-25T09:17:53;3.30;99.90
19168;DHT22;9716;53.114;18.040;2023-11-25T09:20:21;3.30;99.90
19168;DHT22;9716;53.114;18.040;2023-11-25T09:22:50;3.30;99.90
19168;DHT22;9716;53.114;18.040;2023-11-25T09:25:19;3.30;99.90
19168;DHT22;9716;53.114;18.040;2023-11-25T09:27:48;3.30;99.90
19168;DHT22;9716;53.114;18.040;2023-11-25T09:30:17;3.30;99.90
19168;DHT22;9716;53.114;18.040;2023-11-25T09:32:47;3.30;99.90
19168;DHT22;9716;53.114;18.040;2023-11-25T09:35:15;3.30;99.90
19168;DHT22;9716;53.114;18.040;2023-11-25T09:37:44;3.30;99.90
19168;DHT22;9716;53.114;18.040;2023-11-25T09:40:15;3.30;99.90
19168;DHT22;9716;53.114;18.040;2023-11-25T09:42:46;3.40;99.90
19168;DHT22;9716;53.114;18.040;2023-11-25T09:45:15;3.40;99.90
19168;DHT22;9716;53.114;18.040;2023-11-25T09:47:44;3.40;99.90
19168;DHT22;9716;53.114;18.040;2023-11-25T09:50:14;3.40;99.90
19168;DHT22;9716;53.114;18.040;2023-11-25T09:52:48;3.40;99.90
19168;DHT22;9716;53.114;18.040;2023-11-25T09:55:18;3.40;99.90
19168;DHT22;9716;53.114;18.040;2023-11-25T09:57:53;3.40;99.90
19168;DHT22;9716;53.114;18.040;2023-11-25T10:00:22;3.40;99.90
19168;DHT22;9716;53.114;18.040;2023-11-25T10:02:53;3.40;99.90
19168;DHT22;9716;53.114;18.040;2023-11-25T10:05:24;3.40;99.90
19168;DHT22;9716;53.114;18.040;2023-11-25T10:07:54;3.40;99.90
19168;DHT22;9716;53.114;18.040;2023-11-25T10:10:24;3.40;99.90
19168;DHT22;9716;53.114;18.040;2023-11-25T10:12:56;3.40;99.90
19168;DHT22;9716;53.114;18.040;2023-11-25T10:15:24;3.40;99.90
19168;DHT22;9716;53.114;18.040;2023-11-25T10:17:53;3.40;99.90
19168;DHT22;9716;53.114;18.040;2023-11-25T10:20:22;3.50;99.90
19168;DHT22;9716;53.114;18.040;2023-11-25T10:22:53;3.50;99.90
19168;DHT22;9716;53.114;18.040;2023-11-25T10:25:26;3.50;99.90
19168;DHT22;9716;53.114;18.040;2023-11-25T10:27:56;3.60;99.90
19168;DHT22;9716;53.114;18.040;2023-11-25T10:30:26;3.60;99.90
19168;DHT22;9716;53.114;18.040;2023-11-25T10:32:56;3.60;99.90
19168;DHT22;9716;53.114;18.040;2023-11-25T10:35:28;3.70;99.90
19168;DHT22;9716;53.114;18.040;2023-11-25T10:37:58;3.70;99.90
19168;DHT22;9716;53.114;18.040;2023-11-25T10:40:26;3.70;99.90
19168;DHT22;9716;53.114;18.040;2023-11-25T10:42:56;3.70;99.90
19168;DHT22;9716;53.114;18.040;2023-11-25T10:45:31;3.70;99.90
19168;DHT22;9716;53.114;18.040;2023-11-25T10:48:00;3.60;99.90
19168;DHT22;9716;53.114;18.040;2023-11-25T10:50:31;3.60;99.90
19168;DHT22;9716;53.114;18.040;2023-11-25T10:53:04;3.60;99.90
19168;DHT22;9716;53.114;18.040;2023-11-25T10:55:33;3.60;99.90
19168;DHT22;9716;53.114;18.040;2023-11-25T10:58:04;3.60;99.90
19168;DHT22;9716;53.114;18.040;2023-11-25T11:00:33;3.70;99.90
19168;DHT22;9716;53.114;18.040;2023-11-25T11:03:05;3.70;99.90
19168;DHT22;9716;53.114;18.040;2023-11-25T11:05:41;3.80;99.90
19168;DHT22;9716;53.114;18.040;2023-11-25T11:08:20;3.80;99.90
19168;DHT22;9716;53.114;18.040;2023-11-25T11:10:54;3.80;99.90
19168;DHT22;9716;53.114;18.040;2023-11-25T11:13:28;3.90;99.90
19168;DHT22;9716;53.114;18.040;2023-11-25T11:15:58;3.90;99.90
19168;DHT22;9716;53.114;18.040;2023-11-25T11:18:32;3.90;99.90
19168;DHT22;9716;53.114;18.040;2023-11-25T11:21:06;3.90;99.90
19168;DHT22;9716;53.114;18.040;2023-11-25T11:23:38;3.90;99.90
19168;DHT22;9716;53.114;18.040;2023-11-25T11:26:19;3.90;99.90
19168;DHT22;9716;53.114;18.040;2023-11-25T11:28:56;3.90;99.90
19168;DHT22;9716;53.114;18.040;2023-11-25T11:31:55;4.00;99.90
19168;DHT22;9716;53.114;18.040;2023-11-25T11:34:27;4.00;99.90
19168;DHT22;9716;53.114;18.040;2023-11-25T11:36:56;4.10;99.90
19168;DHT22;9716;53.114;18.040;2023-11-25T11:39:44;4.10;99.90
19168;DHT22;9716;53.114;18.040;2023-11-25T11:42:29;4.10;99.90
19168;DHT22;9716;53.114;18.040;2023-11-25T11:45:05;4.10;99.90
19168;DHT22;9716;53.114;18.040;2023-11-25T11:47:44;4.20;99.90
19168;DHT22;9716;53.114;18.040;2023-11-25T11:50:17;4.30;99.90
19168;DHT22;9716;53.114;18.040;2023-11-25T11:53:11;4.30;99.90
19168;DHT22;9716;53.114;18.040;2023-11-25T11:55:49;4.40;99.90
19168;DHT22;9716;53.114;18.040;2023-11-25T11:58:20;4.40;99.90
19168;DHT22;9716;53.114;18.040;2023-11-25T12:00:53;4.50;99.90
19168;DHT22;9716;53.114;18.040;2023-11-25T12:03:22;4.50;99.90
19168;DHT22;9716;53.114;18.040;2023-11-25T12:05:51;4.50;99.90
19168;DHT22;9716;53.114;18.040;2023-11-25T12:08:20;4.60;99.90
19168;DHT22;9716;53.114;18.040;2023-11-25T12:10:51;4.60;99.90
19168;DHT22;9716;53.114;18.040;2023-11-25T12:13:24;4.70;99.90
19168;DHT22;9716;53.114;18.040;2023-11-25T12:15:54;4.70;99.90
19168;DHT22;9716;53.114;18.040;2023-11-25T12:18:26;4.80;99.90
19168;DHT22;9716;53.114;18.040;2023-11-25T12:20:56;4.90;99.90
19168;DHT22;9716;53.114;18.040;2023-11-25T12:23:28;5.00;99.90
19168;DHT22;9716;53.114;18.040;2023-11-25T12:26:20;5.10;99.90
19168;DHT22;9716;53.114;18.040;2023-11-25T12:28:49;5.20;99.90
19168;DHT22;9716;53.114;18.040;2023-11-25T12:31:18;5.20;99.90
19168;DHT22;9716;53.114;18.040;2023-11-25T12:33:47;5.30;99.90
19168;DHT22;9716;53.114;18.040;2023-11-25T12:36:16;5.30;99.90
19168;DHT22;9716;53.114;18.040;2023-11-25T12:38:44;5.40;99.90
19168;DHT22;9716;53.114;18.040;2023-11-25T12:41:13;5.30;99.90
19168;DHT22;9716;53.114;18.040;2023-11-25T12:44:06;5.30;99.90
19168;DHT22;9716;53.114;18.040;2023-11-25T12:46:38;5.20;99.90
19168;DHT22;9716;53.114;18.040;2023-11-25T12:49:20;5.10;99.90
19168;DHT22;9716;53.114;18.040;2023-11-25T12:51:49;5.00;99.90
19168;DHT22;9716;53.114;18.040;2023-11-25T12:54:19;5.00;99.90
19168;DHT22;9716;53.114;18.040;2023-11-25T12:56:48;4.90;99.90
19168;DHT22;9716;53.114;18.040;2023-11-25T12:59:22;4.80;99.90
19168;DHT22;9716;53.114;18.040;2023-11-25T13:01:51;4.80;99.90
19168;DHT22;9716;53.114;18.040;2023-11-25T13:04:20;4.80;99.90
19168;DHT22;9716;53.114;18.040;2023-11-25T13:06:51;4.70;99.90
19168;DHT22;9716;53.114;18.040;2023-11-25T13:09:27;4.70;99.90
19168;DHT22;9716;53.114;18.040;2023-11-25T13:11:55;4.70;99.90
19168;DHT22;9716;53.114;18.040;2023-11-25T13:14:25;4.60;99.90
19168;DHT22;9716;53.114;18.040;2023-11-25T13:16:54;4.60;99.90
19168;DHT22;9716;53.114;18.040;2023-11-25T13:19:22;4.50;99.90
19168;DHT22;9716;53.114;18.040;2023-11-25T13:21:53;4.50;99.90
19168;DHT22;9716;53.114;18.040;2023-11-25T13:24:21;4.40;99.90
19168;DHT22;9716;53.114;18.040;2023-11-25T13:26:50;4.40;99.90
19168;DHT22;9716;53.114;18.040;2023-11-25T13:29:19;4.30;99.90
19168;DHT22;9716;53.114;18.040;2023-11-25T13:31:49;4.20;99.90
19168;DHT22;9716;53.114;18.040;2023-11-25T13:34:17;4.20;99.90
19168;DHT22;9716;53.114;18.040;2023-11-25T13:36:46;4.10;99.90
19168;DHT22;9716;53.114;18.040;2023-11-25T13:39:15;4.10;99.90
19168;DHT22;9716;53.114;18.040;2023-11-25T13:41:47;4.10;99.90
19168;DHT22;9716;53.114;18.040;2023-11-25T13:44:15;4.00;99.90
19168;DHT22;9716;53.114;18.040;2023-11-25T13:46:44;4.00;99.90
19168;DHT22;9716;53.114;18.040;2023-11-25T13:49:14;3.90;99.90
19168;DHT22;9716;53.114;18.040;2023-11-25T13:51:42;3.90;99.90
19168;DHT22;9716;53.114;18.040;2023-11-25T13:54:10;3.80;99.90
19168;DHT22;9716;53.114;18.040;2023-11-25T13:56:39;3.70;99.90
19168;DHT22;9716;53.114;18.040;2023-11-25T13:59:08;3.60;99.90
19168;DHT22;9716;53.114;18.040;2023-11-25T14:01:36;3.50;99.90
19168;DHT22;9716;53.114;18.040;2023-11-25T14:04:05;3.50;99.90
19168;DHT22;9716;53.114;18.040;2023-11-25T14:06:36;3.40;99.90
19168;DHT22;9716;53.114;18.040;2023-11-25T14:09:05;3.30;99.90
19168;DHT22;9716;53.114;18.040;2023-11-25T14:11:36;3.30;99.90
19168;DHT22;9716;53.114;18.040;2023-11-25T14:14:05;3.20;99.90
19168;DHT22;9716;53.114;18.040;2023-11-25T14:16:34;3.20;99.90
19168;DHT22;9716;53.114;18.040;2023-11-25T14:19:03;3.10;99.90
19168;DHT22;9716;53.114;18.040;2023-11-25T14:21:32;3.10;99.90
19168;DHT22;9716;53.114;18.040;2023-11-25T14:24:02;3.10;99.90
19168;DHT22;9716;53.114;18.040;2023-11-25T14:26:31;3.10;99.90
19168;DHT22;9716;53.114;18.040;2023-11-25T14:29:01;3.00;99.90
19168;DHT22;9716;53.114;18.040;2023-11-25T14:31:30;3.00;99.90
19168;DHT22;9716;53.114;18.040;2023-11-25T14:33:59;3.00;99.90
19168;DHT22;9716;53.114;18.040;2023-11-25T14:36:28;2.90;99.90
19168;DHT22;9716;53.114;18.040;2023-11-25T14:38:57;2.90;99.90
19168;DHT22;9716;53.114;18.040;2023-11-25T14:41:27;2.90;99.90
19168;DHT22;9716;53.114;18.040;2023-11-25T14:43:55;2.80;99.90
19168;DHT22;9716;53.114;18.040;2023-11-25T14:46:24;2.90;99.90
19168;DHT22;9716;53.114;18.040;2023-11-25T14:48:53;2.80;99.90
19168;DHT22;9716;53.114;18.040;2023-11-25T14:51:21;2.70;99.90
19168;DHT22;9716;53.114;18.040;2023-11-25T14:53:50;2.70;99.90
19168;DHT22;9716;53.114;18.040;2023-11-25T14:56:18;2.70;99.90
19168;DHT22;9716;53.114;18.040;2023-11-25T14:58:48;2.70;99.90
19168;DHT22;9716;53.114;18.040;2023-11-25T15:01:17;2.70;99.90
19168;DHT22;9716;53.114;18.040;2023-11-25T15:03:46;2.70;99.90
19168;DHT22;9716;53.114;18.040;2023-11-25T15:06:15;2.70;99.90
19168;DHT22;9716;53.114;18.040;2023-11-25T15:08:43;2.70;99.90
19168;DHT22;9716;53.114;18.040;2023-11-25T15:11:12;2.70;99.90
19168;DHT22;9716;53.114;18.040;2023-11-25T15:13:41;2.70;99.90
19168;DHT22;9716;53.114;18.040;2023-11-25T15:16:15;2.70;99.90
19168;DHT22;9716;53.114;18.040;2023-11-25T15:18:43;2.70;99.90
19168;DHT22;9716;53.114;18.040;2023-11-25T15:21:16;2.70;99.90
19168;DHT22;9716;53.114;18.040;2023-11-25T15:23:46;2.70;99.90
19168;DHT22;9716;53.114;18.040;2023-11-25T15:26:14;2.70;99.90
19168;DHT22;9716;53.114;18.040;2023-11-25T15:28:43;2.70;99.90
19168;DHT22;9716;53.114;18.040;2023-11-25T15:31:14;2.60;99.90
19168;DHT22;9716;53.114;18.040;2023-11-25T15:33:43;2.60;99.90
19168;DHT22;9716;53.114;18.040;2023-11-25T15:36:13;2.60;99.90
19168;DHT22;9716;53.114;18.040;2023-11-25T15:38:42;2.50;99.90
19168;DHT22;9716;53.114;18.040;2023-11-25T15:41:10;2.50;99.90
19168;DHT22;9716;53.114;18.040;2023-11-25T15:43:39;2.50;99.90
19168;DHT22;9716;53.114;18.040;2023-11-25T15:46:09;2.40;99.90
19168;DHT22;9716;53.114;18.040;2023-11-25T15:48:39;2.40;99.90
19168;DHT22;9716;53.114;18.040;2023-11-25T15:51:07;2.40;99.90
19168;DHT22;9716;53.114;18.040;2023-11-25T15:53:36;2.30;99.90
19168;DHT22;9716;53.114;18.040;2023-11-25T15:56:05;2.20;99.90
19168;DHT22;9716;53.114;18.040;2023-11-25T15:58:33;2.20;99.90
19168;DHT22;9716;53.114;18.040;2023-11-25T16:01:02;2.20;99.90
19168;DHT22;9716;53.114;18.040;2023-11-25T16:03:31;2.10;99.90